Time;durP1;ratioP1;P1;durP2;ratioP2;P2;SDS_P1;SDS_P2;PMS_P1;PMS_P2;Temp;Humidity;BMP_temperature;BMP_pressure;BME280_temperature;BME280_humidity;BME280_pressure;Samples;Min_cycle;Max_cycle;Signal;HPM_P1;HPM_P2
2021/11/06 00:02:20;;;;;;;;;;;7.00;1.00;;;;;;5030019;28;19920;-74
2021/11/06 00:04:46;;;;;;;;;;;7.00;1.00;;;;;;5031766;28;19913;-74
2021/11/06 00:07:11;;;;;;;;;;;6.90;1.00;;;;;;5030905;28;19916;-73
2021/11/06 00:09:39;;;;;;;;;;;6.90;1.00;;;;;;5033571;28;19913;-76
2021/11/06 00:12:05;;;;;;;;;;;6.90;1.00;;;;;;5033369;28;19972;-72
2021/11/06 00:14:31;;;;;;;;;;;6.90;1.00;;;;;;5034280;28;20014;-73
2021/11/06 00:16:57;;;;;;;;;;;7.00;1.00;;;;;;5032580;28;19980;-74
2021/11/06 00:19:23;;;;;;;;;;;7.00;1.00;;;;;;5027100;28;20327;-73
2021/11/06 00:21:48;;;;;;;;;;;7.00;1.00;;;;;;5045747;28;19971;-73
2021/11/06 00:24:14;;;;;;;;;;;7.00;1.00;;;;;;5047398;28;19947;-71
2021/11/06 00:26:39;;;;;;;;;;;7.00;1.00;;;;;;5044919;28;19984;-73
2021/11/06 00:29:05;;;;;;;;;;;6.90;1.00;;;;;;5042885;28;19913;-74
2021/11/06 00:31:30;;;;;;;;;;;6.90;1.00;;;;;;5030878;28;20035;-73
2021/11/06 00:33:56;;;;;;;;;;;6.80;1.00;;;;;;5030904;28;19909;-73
2021/11/06 00:36:24;;;;;;;;;;;6.80;1.00;;;;;;5030464;28;19910;-73
2021/11/06 00:38:50;;;;;;;;;;;6.80;1.00;;;;;;5031443;28;19913;-74
2021/11/06 00:41:16;;;;;;;;;;;6.80;1.00;;;;;;5030473;28;20377;-74
2021/11/06 00:43:41;;;;;;;;;;;6.80;1.00;;;;;;5030696;28;19909;-74
2021/11/06 00:46:07;;;;;;;;;;;6.80;1.00;;;;;;5030613;28;19909;-74
2021/11/06 00:48:32;;;;;;;;;;;6.80;1.00;;;;;;5030296;28;19913;-73
2021/11/06 00:50:58;;;;;;;;;;;6.80;1.00;;;;;;5025516;28;20380;-74
2021/11/06 00:53:23;;;;;;;;;;;6.80;1.00;;;;;;5029866;28;19914;-73
2021/11/06 00:55:49;;;;;;;;;;;6.90;1.00;;;;;;5030451;28;19921;-74
2021/11/06 00:58:14;;;;;;;;;;;6.90;1.00;;;;;;5028974;28;20341;-74
2021/11/06 01:00:40;;;;;;;;;;;6.90;1.00;;;;;;5030243;28;19917;-74
2021/11/06 01:03:05;;;;;;;;;;;6.80;1.00;;;;;;5029688;28;19964;-74
2021/11/06 01:05:31;;;;;;;;;;;6.80;1.00;;;;;;5028236;28;19949;-74
2021/11/06 01:07:56;;;;;;;;;;;6.80;1.00;;;;;;5030481;28;19932;-73
2021/11/06 01:10:22;;;;;;;;;;;6.80;1.00;;;;;;5029871;28;19909;-74
2021/11/06 01:12:48;;;;;;;;;;;6.70;1.00;;;;;;5028993;28;19967;-74
2021/11/06 01:15:14;;;;;;;;;;;6.70;1.00;;;;;;5030257;28;19913;-74
2021/11/06 01:17:40;;;;;;;;;;;6.70;1.00;;;;;;5029670;28;19909;-74
2021/11/06 01:20:06;;;;;;;;;;;6.70;1.00;;;;;;5029439;28;19950;-73
2021/11/06 01:22:32;;;;;;;;;;;6.70;1.00;;;;;;5029314;28;19916;-73
2021/11/06 01:25:00;;;;;;;;;;;6.70;1.00;;;;;;5029121;28;19925;-73
2021/11/06 01:27:26;;;;;;;;;;;6.70;1.00;;;;;;5029513;28;19913;-74
2021/11/06 01:29:51;;;;;;;;;;;6.70;1.00;;;;;;5029749;28;19920;-73
2021/11/06 01:32:17;;;;;;;;;;;6.70;1.00;;;;;;5028852;28;19940;-74
2021/11/06 01:34:43;;;;;;;;;;;6.80;1.00;;;;;;5029437;28;20282;-72
2021/11/06 01:37:08;;;;;;;;;;;6.80;1.00;;;;;;5029261;28;19999;-73
2021/11/06 01:39:34;;;;;;;;;;;6.80;1.00;;;;;;5030005;28;20315;-73
2021/11/06 01:41:59;;;;;;;;;;;6.80;1.00;;;;;;5028514;28;20059;-74
2021/11/06 01:44:25;;;;;;;;;;;6.80;1.00;;;;;;5029737;28;19909;-74
2021/11/06 01:46:51;;;;;;;;;;;6.80;1.00;;;;;;5028997;28;19945;-74
2021/11/06 01:49:20;;;;;;;;;;;6.80;1.00;;;;;;5029278;28;19917;-74
2021/11/06 01:51:46;;;;;;;;;;;6.70;1.00;;;;;;5028841;28;20385;-74
2021/11/06 01:54:11;;;;;;;;;;;6.80;1.00;;;;;;5029510;28;19909;-73
2021/11/06 01:56:37;;;;;;;;;;;6.70;1.00;;;;;;5028931;28;19909;-73
2021/11/06 01:59:02;;;;;;;;;;;6.70;1.00;;;;;;5029049;28;19962;-73
2021/11/06 02:01:28;;;;;;;;;;;6.70;1.00;;;;;;5026516;28;19913;-74
2021/11/06 02:03:53;;;;;;;;;;;6.70;1.00;;;;;;5028707;28;20580;-74
2021/11/06 02:06:19;;;;;;;;;;;6.70;1.00;;;;;;5028880;28;20004;-74
2021/11/06 02:08:44;;;;;;;;;;;6.70;1.00;;;;;;5029524;28;19917;-72
2021/11/06 02:11:10;;;;;;;;;;;6.60;1.00;;;;;;5028036;28;19960;-73
2021/11/06 02:13:36;;;;;;;;;;;6.60;1.00;;;;;;5028702;28;19923;-73
2021/11/06 02:16:01;;;;;;;;;;;6.60;1.00;;;;;;5028647;28;19988;-73
2021/11/06 02:18:27;;;;;;;;;;;6.60;1.00;;;;;;5028848;28;19916;-73
2021/11/06 02:21:00;;;;;;;;;;;6.50;1.00;;;;;;5028631;28;20421;-72
2021/11/06 02:23:26;;;;;;;;;;;6.50;1.00;;;;;;5028306;28;20027;-73
2021/11/06 02:25:52;;;;;;;;;;;6.50;1.00;;;;;;5028698;28;19960;-73
2021/11/06 02:28:17;;;;;;;;;;;6.50;1.00;;;;;;5028515;28;20012;-73
2021/11/06 02:30:43;;;;;;;;;;;6.50;1.00;;;;;;5028661;28;20378;-72
2021/11/06 02:33:09;;;;;;;;;;;6.50;1.00;;;;;;5028265;28;19920;-73
2021/11/06 02:35:34;;;;;;;;;;;6.50;1.00;;;;;;5028103;28;19913;-73
2021/11/06 02:38:00;;;;;;;;;;;6.50;1.00;;;;;;5029135;28;20015;-72
2021/11/06 02:40:25;;;;;;;;;;;6.40;1.00;;;;;;5028443;28;19913;-72
2021/11/06 02:42:51;;;;;;;;;;;6.40;1.00;;;;;;5027975;28;19916;-73
2021/11/06 02:45:17;;;;;;;;;;;6.40;1.00;;;;;;5028917;28;19913;-72
2021/11/06 02:47:42;;;;;;;;;;;6.30;1.00;;;;;;5029117;28;20417;-72
2021/11/06 02:50:08;;;;;;;;;;;6.20;1.00;;;;;;5031929;28;20011;-73
2021/11/06 02:52:33;;;;;;;;;;;6.20;1.00;;;;;;5031775;28;19913;-72
2021/11/06 02:54:59;;;;;;;;;;;6.20;1.00;;;;;;5032294;28;20533;-74
2021/11/06 02:57:24;;;;;;;;;;;6.10;1.00;;;;;;5031539;28;19920;-73
2021/11/06 02:59:52;;;;;;;;;;;6.10;1.00;;;;;;5032244;28;20304;-73
2021/11/06 03:02:17;;;;;;;;;;;6.00;1.00;;;;;;5031054;28;20717;-73
2021/11/06 03:04:43;;;;;;;;;;;5.90;1.00;;;;;;5032515;28;19913;-73
2021/11/06 03:07:09;;;;;;;;;;;5.80;1.00;;;;;;5031720;28;20398;-72
2021/11/06 03:09:41;;;;;;;;;;;5.80;1.00;;;;;;5031918;28;19916;-73
2021/11/06 03:12:09;;;;;;;;;;;5.70;1.00;;;;;;5012727;28;20382;-73
2021/11/06 03:14:35;;;;;;;;;;;5.70;1.00;;;;;;5032382;28;19959;-73
2021/11/06 03:17:01;;;;;;;;;;;5.80;1.00;;;;;;5031234;28;19913;-73
2021/11/06 03:19:26;;;;;;;;;;;5.80;1.00;;;;;;5014202;28;19932;-73
2021/11/06 03:21:52;;;;;;;;;;;5.80;1.00;;;;;;5030275;28;19928;-72
2021/11/06 03:24:17;;;;;;;;;;;5.80;1.00;;;;;;5031802;28;19909;-73
2021/11/06 03:26:43;;;;;;;;;;;5.70;1.00;;;;;;5030874;28;19913;-73
2021/11/06 03:29:08;;;;;;;;;;;5.70;1.00;;;;;;5031855;28;19913;-73
2021/11/06 03:31:34;;;;;;;;;;;5.80;1.00;;;;;;5031003;28;19909;-73
2021/11/06 03:33:59;;;;;;;;;;;5.80;1.00;;;;;;5030693;28;20350;-73
2021/11/06 03:36:25;;;;;;;;;;;5.70;1.00;;;;;;5031436;28;19913;-73
2021/11/06 03:38:50;;;;;;;;;;;5.60;1.00;;;;;;5031831;28;20234;-73
2021/11/06 03:41:16;;;;;;;;;;;5.60;1.00;;;;;;5030733;28;19920;-73
2021/11/06 03:43:41;;;;;;;;;;;5.70;1.00;;;;;;5030646;28;19915;-73
2021/11/06 03:46:07;;;;;;;;;;;5.60;1.00;;;;;;5030731;28;19992;-73
2021/11/06 03:48:32;;;;;;;;;;;5.60;1.00;;;;;;5031350;28;20156;-73
2021/11/06 03:50:59;;;;;;;;;;;5.60;1.00;;;;;;5026727;28;19913;-73
2021/11/06 03:53:24;;;;;;;;;;;5.70;1.00;;;;;;5030607;28;19909;-73
2021/11/06 03:55:50;;;;;;;;;;;5.60;1.00;;;;;;5030877;28;19959;-73
2021/11/06 03:58:15;;;;;;;;;;;5.60;1.00;;;;;;5030617;28;19921;-73
2021/11/06 04:00:41;;;;;;;;;;;5.50;1.00;;;;;;5030817;28;19927;-73
2021/11/06 04:03:06;;;;;;;;;;;5.50;1.00;;;;;;5011985;28;19909;-73
2021/11/06 04:05:32;;;;;;;;;;;5.40;1.00;;;;;;5011414;28;19910;-72
2021/11/06 04:07:57;;;;;;;;;;;5.50;1.00;;;;;;5011137;28;19920;-73
2021/11/06 04:10:23;;;;;;;;;;;5.50;1.00;;;;;;5011447;28;19959;-73
2021/11/06 04:12:48;;;;;;;;;;;5.40;1.00;;;;;;5011048;28;20006;-72
2021/11/06 04:15:15;;;;;;;;;;;5.40;1.00;;;;;;5011161;28;19918;-73
2021/11/06 04:17:41;;;;;;;;;;;5.40;1.00;;;;;;5010820;28;19921;-73
2021/11/06 04:20:07;;;;;;;;;;;5.30;1.00;;;;;;5010359;28;19913;-73
2021/11/06 04:22:33;;;;;;;;;;;5.40;1.00;;;;;;5010463;28;20471;-73
2021/11/06 04:24:58;;;;;;;;;;;5.30;1.00;;;;;;5020519;28;20435;-74
2021/11/06 04:27:24;;;;;;;;;;;5.30;1.00;;;;;;5030246;28;19909;-72
2021/11/06 04:29:49;;;;;;;;;;;5.20;1.00;;;;;;5030497;28;19924;-72
2021/11/06 04:32:15;;;;;;;;;;;5.20;1.00;;;;;;5029588;28;19991;-73
2021/11/06 04:34:41;;;;;;;;;;;5.20;1.00;;;;;;5030594;28;19916;-72
2021/11/06 04:37:06;;;;;;;;;;;5.10;1.00;;;;;;5030171;28;19910;-73
2021/11/06 04:39:32;;;;;;;;;;;5.10;1.00;;;;;;5030534;28;19913;-73
2021/11/06 04:41:57;;;;;;;;;;;5.10;1.00;;;;;;5028145;28;19909;-73
2021/11/06 04:44:23;;;;;;;;;;;5.10;1.00;;;;;;5029675;28;20017;-73
2021/11/06 04:46:48;;;;;;;;;;;5.00;1.00;;;;;;5029743;28;19940;-73
2021/11/06 04:49:14;;;;;;;;;;;5.00;1.00;;;;;;5030209;28;20016;-73
2021/11/06 04:51:39;;;;;;;;;;;5.00;1.00;;;;;;5029557;28;19919;-73
2021/11/06 04:54:05;;;;;;;;;;;5.00;1.00;;;;;;5029053;28;19909;-73
2021/11/06 04:56:31;;;;;;;;;;;5.00;1.00;;;;;;5029023;28;19913;-73
2021/11/06 04:58:56;;;;;;;;;;;5.10;1.00;;;;;;5029912;28;19974;-73
2021/11/06 05:01:22;;;;;;;;;;;5.00;1.00;;;;;;5029479;28;19910;-73
2021/11/06 05:03:47;;;;;;;;;;;5.00;1.00;;;;;;5029432;28;20302;-73
2021/11/06 05:06:13;;;;;;;;;;;4.90;1.00;;;;;;5029232;28;20280;-74
2021/11/06 05:08:38;;;;;;;;;;;4.90;1.00;;;;;;5030033;28;20354;-72
2021/11/06 05:11:04;;;;;;;;;;;4.80;1.00;;;;;;5028938;28;19959;-73
2021/11/06 05:13:29;;;;;;;;;;;4.70;1.00;;;;;;5028933;28;20279;-74
2021/11/06 05:15:57;;;;;;;;;;;4.60;1.00;;;;;;5029287;28;20011;-72
2021/11/06 05:18:23;;;;;;;;;;;4.60;1.00;;;;;;5029498;28;19914;-73
2021/11/06 05:20:49;;;;;;;;;;;4.50;1.00;;;;;;5029326;28;19924;-73
2021/11/06 05:23:15;;;;;;;;;;;4.40;1.00;;;;;;5029198;28;19921;-73
2021/11/06 05:25:41;;;;;;;;;;;4.40;1.00;;;;;;5029049;28;19931;-73
2021/11/06 05:28:07;;;;;;;;;;;4.30;1.00;;;;;;5029193;28;19913;-73
2021/11/06 05:30:33;;;;;;;;;;;4.30;1.00;;;;;;5028994;28;19999;-72
2021/11/06 05:32:59;;;;;;;;;;;4.20;1.00;;;;;;5028691;28;19916;-74
2021/11/06 05:35:24;;;;;;;;;;;4.10;1.00;;;;;;5028796;28;19909;-73
2021/11/06 05:37:50;;;;;;;;;;;4.00;1.00;;;;;;5029364;28;20389;-74
2021/11/06 05:40:15;;;;;;;;;;;3.80;1.00;;;;;;5028914;28;19976;-74
2021/11/06 05:42:41;;;;;;;;;;;3.60;1.00;;;;;;5027520;28;19909;-73
2021/11/06 05:45:07;;;;;;;;;;;3.50;1.00;;;;;;5029149;28;20423;-73
2021/11/06 05:47:33;;;;;;;;;;;3.40;1.00;;;;;;5028710;28;20008;-73
2021/11/06 05:49:58;;;;;;;;;;;3.30;1.00;;;;;;5028703;28;20449;-72
2021/11/06 05:52:24;;;;;;;;;;;3.20;1.00;;;;;;5028563;28;19909;-73
2021/11/06 05:54:49;;;;;;;;;;;3.00;1.00;;;;;;5028912;28;20066;-72
2021/11/06 05:57:15;;;;;;;;;;;3.00;1.00;;;;;;5028180;28;19909;-73
2021/11/06 05:59:40;;;;;;;;;;;2.90;1.00;;;;;;5029424;28;19913;-71
2021/11/06 06:02:06;;;;;;;;;;;2.80;1.00;;;;;;5028227;28;20055;-74
2021/11/06 06:04:32;;;;;;;;;;;2.80;1.00;;;;;;5029641;28;19966;-74
2021/11/06 06:06:58;;;;;;;;;;;2.90;1.00;;;;;;5028449;28;19913;-73
2021/11/06 06:09:23;;;;;;;;;;;2.80;1.00;;;;;;5029317;28;20286;-73
2021/11/06 06:11:48;;;;;;;;;;;2.80;1.00;;;;;;5027883;28;19917;-73
2021/11/06 06:14:14;;;;;;;;;;;2.90;1.00;;;;;;5029584;28;20378;-73
2021/11/06 06:16:39;;;;;;;;;;;2.90;1.00;;;;;;5028679;28;19916;-73
2021/11/06 06:19:05;;;;;;;;;;;2.90;1.00;;;;;;5011484;28;19913;-72
2021/11/06 06:21:30;;;;;;;;;;;3.00;1.00;;;;;;5028992;28;20012;-74
2021/11/06 06:23:57;;;;;;;;;;;3.00;1.00;;;;;;5032261;28;20020;-74
2021/11/06 06:26:22;;;;;;;;;;;3.10;1.00;;;;;;5032625;28;19913;-73
2021/11/06 06:28:48;;;;;;;;;;;3.20;1.00;;;;;;5032962;28;19917;-72
2021/11/06 06:31:14;;;;;;;;;;;3.20;1.00;;;;;;5032798;28;19920;-73
2021/11/06 06:33:40;;;;;;;;;;;3.20;1.00;;;;;;5032685;28;20396;-73
2021/11/06 06:36:05;;;;;;;;;;;3.20;1.00;;;;;;5032787;28;19909;-74
2021/11/06 06:41:43;;;;;;;;;;;3.40;1.00;;;;;;5027815;28;19916;-73
2021/11/06 06:44:43;;;;;;;;;;;3.50;1.00;;;;;;5037089;28;19913;-74
2021/11/06 06:47:10;;;;;;;;;;;3.50;1.00;;;;;;4999913;28;19913;-73
2021/11/06 06:49:36;;;;;;;;;;;3.60;1.00;;;;;;5028314;28;19921;-72
2021/11/06 06:52:01;;;;;;;;;;;3.80;1.00;;;;;;5031776;28;19986;-72
2021/11/06 06:54:27;;;;;;;;;;;3.80;1.00;;;;;;5033210;28;20321;-73
2021/11/06 06:56:53;;;;;;;;;;;3.90;1.00;;;;;;5032352;28;19913;-72
2021/11/06 06:59:18;;;;;;;;;;;3.90;1.00;;;;;;5033092;28;19917;-73
2021/11/06 07:01:46;;;;;;;;;;;3.80;1.00;;;;;;5037156;28;19986;-73
2021/11/06 07:04:11;;;;;;;;;;;3.80;1.00;;;;;;5033357;28;19924;-72
2021/11/06 07:06:37;;;;;;;;;;;3.90;1.00;;;;;;5032289;28;20250;-72
2021/11/06 07:09:03;;;;;;;;;;;3.80;1.00;;;;;;5032467;28;19917;-72
2021/11/06 07:11:28;;;;;;;;;;;3.90;1.00;;;;;;5031910;28;19917;-73
2021/11/06 07:13:54;;;;;;;;;;;4.00;1.00;;;;;;5032713;28;20380;-71
2021/11/06 07:16:20;;;;;;;;;;;4.10;1.00;;;;;;5031750;28;19913;-72
2021/11/06 07:18:45;;;;;;;;;;;4.20;1.00;;;;;;5031642;28;20322;-74
2021/11/06 07:21:11;;;;;;;;;;;4.20;1.00;;;;;;5031835;28;19913;-74
2021/11/06 07:24:14;;;;;;;;;;;4.20;1.00;;;;;;5035716;28;19909;-72
2021/11/06 07:26:57;;;;;;;;;;;4.30;1.00;;;;;;5024993;28;19910;-72
2021/11/06 07:29:23;;;;;;;;;;;4.50;1.00;;;;;;5013991;28;19928;-71
2021/11/06 07:32:20;;;;;;;;;;;;;;;;;;;;;
2021/11/06 07:34:46;;;;;;;;;;;4.40;99.90;;;;;;5007274;28;20008;-72
2021/11/06 07:37:12;;;;;;;;;;;4.40;1.00;;;;;;5030985;28;20004;-72
2021/11/06 07:39:37;;;;;;;;;;;4.50;1.00;;;;;;5032319;28;19961;-72
2021/11/06 07:42:03;;;;;;;;;;;4.50;1.00;;;;;;5030077;28;19913;-72
2021/11/06 07:44:28;;;;;;;;;;;4.40;1.00;;;;;;5032150;28;19913;-74
2021/11/06 07:46:54;;;;;;;;;;;4.50;1.00;;;;;;5031002;28;19915;-72
2021/11/06 07:49:19;;;;;;;;;;;4.60;1.00;;;;;;5031762;28;20044;-73
2021/11/06 07:51:45;;;;;;;;;;;4.60;1.00;;;;;;5030610;28;19944;-73
2021/11/06 07:54:11;;;;;;;;;;;4.70;1.00;;;;;;5013687;28;19938;-73
2021/11/06 07:56:38;;;;;;;;;;;4.70;99.90;;;;;;5012819;28;20324;-73
2021/11/06 07:59:04;;;;;;;;;;;4.50;1.00;;;;;;5031622;28;19955;-73
2021/11/06 08:01:51;;;;;;;;;;;4.70;1.00;;;;;;5034485;28;19909;-73
2021/11/06 08:04:16;;;;;;;;;;;4.90;1.00;;;;;;5031310;28;20317;-72
2021/11/06 08:06:42;;;;;;;;;;;5.20;1.00;;;;;;5030927;28;19928;-72
2021/11/06 08:09:08;;;;;;;;;;;5.50;99.90;;;;;;5031475;28;20392;-72
2021/11/06 08:11:33;;;;;;;;;;;5.70;1.00;;;;;;5029710;28;19909;-72
2021/11/06 08:13:59;;;;;;;;;;;5.90;99.90;;;;;;5030609;28;19913;-72
2021/11/06 08:16:24;;;;;;;;;;;6.00;1.00;;;;;;5030905;28;19922;-73
2021/11/06 08:18:50;;;;;;;;;;;6.30;99.90;;;;;;5031242;28;19909;-72
2021/11/06 08:21:16;;;;;;;;;;;6.40;1.00;;;;;;5030349;28;20414;-72
2021/11/06 08:23:42;;;;;;;;;;;6.50;99.90;;;;;;5030385;28;19915;-72
2021/11/06 08:26:07;;;;;;;;;;;6.70;99.90;;;;;;5030120;28;19909;-72
2021/11/06 08:28:33;;;;;;;;;;;6.90;1.00;;;;;;5031251;28;20427;-71
2021/11/06 08:30:58;;;;;;;;;;;7.10;1.00;;;;;;5030974;28;19913;-72
2021/11/06 08:33:24;;;;;;;;;;;7.20;99.90;;;;;;5030163;28;20313;-73
2021/11/06 08:35:50;;;;;;;;;;;7.40;15.20;;;;;;5012177;28;19909;-71
2021/11/06 08:38:15;;;;;;;;;;;7.40;1.00;;;;;;5030374;28;19916;-72
2021/11/06 08:40:41;;;;;;;;;;;7.40;1.00;;;;;;5011951;28;20366;-72
2021/11/06 08:43:06;;;;;;;;;;;7.60;1.00;;;;;;5029784;28;19909;-71
2021/11/06 08:45:32;;;;;;;;;;;7.60;1.00;;;;;;5029335;28;19967;-73
2021/11/06 08:47:58;;;;;;;;;;;7.70;1.00;;;;;;5030207;28;19913;-72
2021/11/06 08:50:25;;;;;;;;;;;8.10;99.90;;;;;;5029840;28;19914;-73
2021/11/06 08:52:52;;;;;;;;;;;8.40;99.90;;;;;;5030059;28;19971;-71
2021/11/06 08:55:18;;;;;;;;;;;8.60;99.90;;;;;;5030057;28;19935;-72
2021/11/06 08:57:43;;;;;;;;;;;8.50;14.90;;;;;;5029669;28;20028;-72
2021/11/06 09:00:11;;;;;;;;;;;7.70;99.90;;;;;;5030307;28;19924;-72
2021/11/06 09:02:37;;;;;;;;;;;7.40;1.00;;;;;;5029392;28;20008;-72
2021/11/06 09:05:04;;;;;;;;;;;7.40;1.00;;;;;;5012454;28;19936;-72
2021/11/06 09:07:32;;;;;;;;;;;7.30;1.00;;;;;;5030762;28;19933;-72
2021/11/06 09:09:58;;;;;;;;;;;7.20;99.90;;;;;;5029285;28;20004;-72
2021/11/06 09:12:24;;;;;;;;;;;7.20;99.90;;;;;;5029206;28;19983;-73
2021/11/06 09:14:49;;;;;;;;;;;7.20;99.90;;;;;;5030499;28;20289;-73
2021/11/06 09:17:15;;;;;;;;;;;7.00;1.00;;;;;;5029810;28;19925;-73
2021/11/06 09:19:41;;;;;;;;;;;6.70;16.70;;;;;;5030974;28;19939;-73
2021/11/06 09:22:06;;;;;;;;;;;6.60;1.00;;;;;;5028932;28;19971;-73
2021/11/06 09:24:32;;;;;;;;;;;6.20;1.00;;;;;;5030365;28;19939;-72
2021/11/06 09:26:57;;;;;;;;;;;6.20;99.90;;;;;;5029539;28;19909;-71
2021/11/06 09:29:23;;;;;;;;;;;6.20;99.90;;;;;;5030720;28;19916;-73
2021/11/06 09:31:48;;;;;;;;;;;6.20;1.00;;;;;;5029494;28;19988;-74
2021/11/06 09:34:14;;;;;;;;;;;6.20;1.00;;;;;;5029779;28;20219;-75
2021/11/06 09:36:40;;;;;;;;;;;6.00;99.90;;;;;;5029759;28;19920;-72
2021/11/06 09:39:06;;;;;;;;;;;6.20;99.90;;;;;;5030109;28;19913;-73
2021/11/06 09:41:32;;;;;;;;;;;6.60;46.90;;;;;;5029277;28;20258;-73
2021/11/06 09:43:58;;;;;;;;;;;6.70;1.00;;;;;;5029861;28;19984;-73
2021/11/06 09:46:24;;;;;;;;;;;7.00;1.00;;;;;;5030196;28;19921;-73
2021/11/06 09:48:50;;;;;;;;;;;7.30;99.90;;;;;;5031914;28;19920;-73
2021/11/06 09:51:17;;;;;;;;;;;7.50;99.90;;;;;;5023394;28;20290;-72
2021/11/06 09:53:43;;;;;;;;;;;7.60;1.00;;;;;;5015876;28;19914;-72
2021/11/06 09:56:13;;;;;;;;;;;7.80;99.90;;;;;;5014279;28;19917;-72
2021/11/06 09:58:40;;;;;;;;;;;8.00;1.00;;;;;;5017490;28;19921;-74
2021/11/06 10:01:05;;;;;;;;;;;8.20;99.90;;;;;;5021496;28;19910;-74
2021/11/06 10:03:31;;;;;;;;;;;8.60;99.90;;;;;;5021863;28;19916;-73
2021/11/06 10:06:04;;;;;;;;;;;8.80;1.00;;;;;;5021293;28;19917;-73
2021/11/06 10:08:34;;;;;;;;;;;8.90;1.00;;;;;;5017735;28;19940;-73
2021/11/06 10:11:01;;;;;;;;;;;9.10;1.00;;;;;;5016617;28;19959;-72
2021/11/06 10:13:28;;;;;;;;;;;9.20;99.90;;;;;;4999065;28;20005;-73
2021/11/06 10:15:56;;;;;;;;;;;9.30;99.90;;;;;;5015219;28;19925;-75
2021/11/06 10:18:22;;;;;;;;;;;9.30;99.90;;;;;;5014646;28;19914;-74
2021/11/06 10:20:56;;;;;;;;;;;9.40;99.90;;;;;;4995233;28;20008;-72
2021/11/06 10:23:26;;;;;;;;;;;9.40;99.90;;;;;;5014507;28;19910;-72
2021/11/06 10:26:07;;;;;;;;;;;9.50;99.90;;;;;;5030344;28;20412;-73
2021/11/06 10:28:32;;;;;;;;;;;9.60;99.90;;;;;;5016520;28;19921;-72
2021/11/06 10:31:01;;;;;;;;;;;9.70;99.90;;;;;;5031343;28;19924;-74
2021/11/06 10:33:26;;;;;;;;;;;9.90;21.00;;;;;;5034874;28;19931;-72
2021/11/06 10:35:52;;;;;;;;;;;9.90;1.00;;;;;;5034938;28;19933;-73
2021/11/06 10:38:21;;;;;;;;;;;9.90;1.00;;;;;;5034604;28;20004;-74
2021/11/06 10:40:52;;;;;;;;;;;10.00;1.00;;;;;;5034093;28;19913;-73
2021/11/06 10:43:20;;;;;;;;;;;10.00;1.00;;;;;;5030966;28;19913;-73
2021/11/06 10:45:47;;;;;;;;;;;10.00;1.00;;;;;;5033630;28;19909;-73
2021/11/06 10:48:15;;;;;;;;;;;10.00;1.00;;;;;;5029615;28;19936;-73
2021/11/06 10:50:49;;;;;;;;;;;9.90;1.00;;;;;;5028664;28;19919;-73
2021/11/06 10:53:16;;;;;;;;;;;9.70;1.00;;;;;;5028630;28;20298;-73
2021/11/06 10:55:42;;;;;;;;;;;9.40;1.00;;;;;;5029286;28;19971;-72
2021/11/06 10:58:19;;;;;;;;;;;9.00;8.30;;;;;;5029353;28;19960;-74
2021/11/06 11:01:04;;;;;;;;;;;9.00;99.90;;;;;;5029113;28;19913;-73
2021/11/06 11:03:31;;;;;;;;;;;9.10;99.90;;;;;;5010834;28;19913;-72
2021/11/06 11:05:58;;;;;;;;;;;9.00;99.90;;;;;;5028947;28;19913;-72
2021/11/06 11:08:24;;;;;;;;;;;8.90;99.90;;;;;;5029486;28;19909;-72
2021/11/06 11:10:49;;;;;;;;;;;8.90;99.90;;;;;;5032102;28;19909;-71
2021/11/06 11:13:18;;;;;;;;;;;8.90;99.90;;;;;;5031628;28;19909;-73
2021/11/06 11:15:45;;;;;;;;;;;9.00;99.90;;;;;;5032004;28;19909;-72
2021/11/06 11:18:33;;;;;;;;;;;8.60;99.90;;;;;;5014329;28;19959;-72
2021/11/06 11:21:10;;;;;;;;;;;8.60;1.00;;;;;;5032108;28;19948;-73
2021/11/06 11:23:36;;;;;;;;;;;8.70;1.00;;;;;;5018071;28;20291;-74
2021/11/06 11:26:02;;;;;;;;;;;8.60;99.90;;;;;;5016500;28;19908;-72
2021/11/06 11:28:34;;;;;;;;;;;8.20;1.00;;;;;;5031839;28;19920;-73
2021/11/06 11:30:59;;;;;;;;;;;8.00;99.90;;;;;;5030697;28;19936;-72
2021/11/06 11:33:25;;;;;;;;;;;7.90;99.90;;;;;;5031461;28;19909;-71
2021/11/06 11:35:51;;;;;;;;;;;7.70;1.00;;;;;;5031657;28;19909;-70
2021/11/06 11:38:18;;;;;;;;;;;7.50;99.90;;;;;;5032712;28;19910;-72
2021/11/06 11:40:52;;;;;;;;;;;7.30;1.00;;;;;;5031506;28;19949;-72
2021/11/06 11:43:34;;;;;;;;;;;7.30;99.90;;;;;;5040158;28;19985;-74
2021/11/06 11:46:05;;;;;;;;;;;7.10;1.00;;;;;;5005284;28;20017;-74
2021/11/06 11:48:31;;;;;;;;;;;7.20;1.00;;;;;;5032030;28;20011;-74
2021/11/06 11:50:58;;;;;;;;;;;7.40;1.00;;;;;;5031523;28;20338;-73
2021/11/06 11:53:26;;;;;;;;;;;7.40;99.90;;;;;;5031452;28;20266;-74
2021/11/06 11:55:55;;;;;;;;;;;7.30;1.00;;;;;;5031979;28;20370;-74
2021/11/06 11:58:34;;;;;;;;;;;7.30;1.00;;;;;;5031646;28;19917;-73
2021/11/06 12:01:01;;;;;;;;;;;7.40;1.00;;;;;;5032559;28;19956;-73
2021/11/06 12:03:27;;;;;;;;;;;7.50;1.00;;;;;;5031931;28;19913;-75
2021/11/06 12:05:53;;;;;;;;;;;7.60;99.90;;;;;;5014080;28;19910;-75
2021/11/06 12:08:21;;;;;;;;;;;7.70;1.00;;;;;;5031889;28;19916;-74
2021/11/06 12:10:47;;;;;;;;;;;7.80;99.90;;;;;;5014123;28;19909;-72
2021/11/06 12:13:29;;;;;;;;;;;7.90;99.90;;;;;;5030145;28;19917;-73
2021/11/06 12:15:58;;;;;;;;;;;8.00;1.00;;;;;;5030896;28;20008;-74
2021/11/06 12:18:32;;;;;;;;;;;8.20;99.90;;;;;;5031142;28;19985;-74
2021/11/06 12:21:20;;;;;;;;;;;7.90;99.90;;;;;;5031938;28;19920;-72
2021/11/06 12:23:53;;;;;;;;;;;7.80;99.90;;;;;;5013037;28;19992;-73
2021/11/06 12:26:21;;;;;;;;;;;7.60;1.00;;;;;;5030119;28;19955;-73
2021/11/06 12:28:47;;;;;;;;;;;7.30;99.90;;;;;;5031561;28;20366;-74
2021/11/06 12:31:21;;;;;;;;;;;7.40;99.90;;;;;;5030396;28;20286;-73
2021/11/06 12:33:47;;;;;;;;;;;7.60;1.00;;;;;;5030809;28;19953;-72
2021/11/06 12:36:26;;;;;;;;;;;7.90;1.00;;;;;;5030376;28;20481;-73
2021/11/06 12:38:52;;;;;;;;;;;8.20;1.00;;;;;;5031478;28;19909;-73
2021/11/06 12:41:30;;;;;;;;;;;8.60;1.00;;;;;;5036016;28;19988;-74
2021/11/06 12:43:56;;;;;;;;;;;8.60;99.90;;;;;;5036015;28;19909;-74
2021/11/06 12:46:32;;;;;;;;;;;8.80;99.90;;;;;;5030425;28;19971;-72
2021/11/06 12:49:00;;;;;;;;;;;9.10;1.00;;;;;;5028865;28;19935;-73
2021/11/06 12:51:28;;;;;;;;;;;9.20;1.00;;;;;;5020059;28;20517;-71
2021/11/06 12:53:56;;;;;;;;;;;9.20;1.00;;;;;;5030326;28;20388;-73
2021/11/06 12:56:23;;;;;;;;;;;9.20;99.90;;;;;;5029903;28;20350;-73
2021/11/06 12:59:03;;;;;;;;;;;9.10;99.90;;;;;;5034090;28;19917;-72
2021/11/06 13:01:39;;;;;;;;;;;9.10;99.90;;;;;;5030798;28;19996;-75
2021/11/06 13:04:06;;;;;;;;;;;9.10;99.90;;;;;;5034092;28;19913;-72
2021/11/06 13:06:32;;;;;;;;;;;9.10;99.90;;;;;;5029719;28;19913;-72
2021/11/06 13:09:17;;;;;;;;;;;9.20;99.90;;;;;;5038326;28;19916;-74
2021/11/06 13:11:48;;;;;;;;;;;9.40;99.90;;;;;;5034747;28;19913;-73
2021/11/06 13:14:26;;;;;;;;;;;9.50;99.90;;;;;;5039089;28;19932;-73
2021/11/06 13:17:02;;;;;;;;;;;9.60;99.90;;;;;;5031263;28;20334;-74
2021/11/06 13:19:35;;;;;;;;;;;9.60;86.20;;;;;;5030063;28;19928;-75
2021/11/06 13:22:00;;;;;;;;;;;9.60;55.00;;;;;;5029151;28;19924;-74
2021/11/06 13:24:46;;;;;;;;;;;9.60;62.50;;;;;;5027931;28;19913;-73
2021/11/06 13:27:31;;;;;;;;;;;9.60;16.50;;;;;;5012732;28;20327;-74
2021/11/06 13:30:11;;;;;;;;;;;9.80;14.40;;;;;;5013192;28;20259;-74
2021/11/06 13:32:49;;;;;;;;;;;9.90;1.00;;;;;;5028631;28;19913;-72
2021/11/06 13:35:16;;;;;;;;;;;9.80;1.00;;;;;;5029309;28;19913;-72
2021/11/06 13:37:41;;;;;;;;;;;9.70;1.00;;;;;;5029923;28;19909;-73
2021/11/06 13:40:07;;;;;;;;;;;9.60;1.00;;;;;;5031877;28;19913;-73
2021/11/06 13:42:33;;;;;;;;;;;9.50;1.00;;;;;;5029070;28;20016;-71
2021/11/06 13:45:11;;;;;;;;;;;9.40;1.00;;;;;;5029954;28;19909;-72
2021/11/06 13:47:43;;;;;;;;;;;9.30;1.00;;;;;;5029052;28;19913;-73
2021/11/06 13:50:09;;;;;;;;;;;9.20;1.00;;;;;;5029228;28;19913;-74
2021/11/06 13:52:35;;;;;;;;;;;9.10;1.00;;;;;;5011124;28;20480;-72
2021/11/06 13:55:10;;;;;;;;;;;9.00;1.00;;;;;;5029576;28;19909;-73
2021/11/06 13:57:35;;;;;;;;;;;8.80;1.00;;;;;;5028834;28;20000;-73
2021/11/06 14:00:05;;;;;;;;;;;8.60;1.00;;;;;;5029962;28;20200;-73
2021/11/06 14:02:31;;;;;;;;;;;8.50;1.00;;;;;;5028949;28;20368;-73
2021/11/06 14:05:05;;;;;;;;;;;8.30;3.80;;;;;;5029619;28;20016;-72
2021/11/06 14:07:32;;;;;;;;;;;8.00;90.70;;;;;;5029962;28;19948;-73
2021/11/06 14:10:03;;;;;;;;;;;7.90;99.90;;;;;;5029368;28;19978;-73
2021/11/06 14:12:37;;;;;;;;;;;7.80;99.90;;;;;;5029204;28;19935;-73
2021/11/06 14:15:03;;;;;;;;;;;7.60;99.90;;;;;;5029719;28;20095;-73
2021/11/06 14:17:29;;;;;;;;;;;7.50;1.00;;;;;;5029693;28;20396;-74
2021/11/06 14:19:56;;;;;;;;;;;7.50;1.00;;;;;;5029029;28;19913;-74
2021/11/06 14:22:26;;;;;;;;;;;7.40;1.00;;;;;;5028935;28;19909;-72
2021/11/06 14:24:52;;;;;;;;;;;7.30;1.00;;;;;;5029152;28;20343;-75
2021/11/06 14:27:18;;;;;;;;;;;7.20;14.20;;;;;;5025351;28;19919;-74
2021/11/06 14:29:59;;;;;;;;;;;7.10;1.00;;;;;;5029137;28;20015;-73
2021/11/06 14:32:24;;;;;;;;;;;6.90;28.20;;;;;;5028447;28;19992;-71
2021/11/06 14:35:01;;;;;;;;;;;6.80;1.00;;;;;;5029114;28;20007;-73
2021/11/06 14:37:26;;;;;;;;;;;6.70;99.90;;;;;;5029482;28;19999;-72
2021/11/06 14:39:59;;;;;;;;;;;6.70;1.00;;;;;;5028664;28;20032;-74
2021/11/06 14:42:28;;;;;;;;;;;6.60;1.00;;;;;;5010349;28;19921;-71
2021/11/06 14:44:54;;;;;;;;;;;6.50;99.90;;;;;;5032117;28;19952;-73
2021/11/06 14:47:21;;;;;;;;;;;6.40;1.00;;;;;;5032564;28;19949;-72